Time;durP1;ratioP1;P1;durP2;ratioP2;P2;SDS_P1;SDS_P2;PMS_P1;PMS_P2;Temp;Humidity;BMP_temperature;BMP_pressure;BME280_temperature;BME280_humidity;BME280_pressure;Samples;Min_cycle;Max_cycle;Signal;HPM_P1;HPM_P2
2021/05/29 00:00:09;;;;;;;6.68;4.22;;;17.10;99.90;;;;;;5056904;28;20428;-69
2021/05/29 00:02:35;;;;;;;5.43;4.00;;;17.10;99.90;;;;;;5072165;28;20029;-71
2021/05/29 00:05:02;;;;;;;6.43;3.55;;;17.20;99.90;;;;;;5056219;28;20635;-69
2021/05/29 00:07:27;;;;;;;6.28;4.20;;;17.20;99.90;;;;;;5057676;28;20044;-72
2021/05/29 00:09:53;;;;;;;4.38;3.97;;;17.30;99.90;;;;;;5056815;28;20067;-69
2021/05/29 00:12:19;;;;;;;5.30;4.00;;;17.40;99.90;;;;;;5056180;28;20028;-72
2021/05/29 00:14:47;;;;;;;3.92;3.53;;;17.50;99.90;;;;;;5057951;28;20071;-68
2021/05/29 00:17:13;;;;;;;4.57;4.18;;;17.50;99.90;;;;;;5056424;28;20028;-68
2021/05/29 00:19:39;;;;;;;5.65;3.83;;;17.60;99.90;;;;;;5058987;28;20503;-72
2021/05/29 00:22:05;;;;;;;6.50;4.20;;;17.50;99.90;;;;;;5054869;28;20036;-69
2021/05/29 00:24:30;;;;;;;4.10;3.80;;;17.00;99.90;;;;;;5059988;28;20486;-73
2021/05/29 00:26:56;;;;;;;6.30;4.32;;;17.00;99.90;;;;;;5053395;28;20502;-74
2021/05/29 00:29:22;;;;;;;6.65;3.88;;;17.20;99.90;;;;;;5060181;28;20053;-72
2021/05/29 00:31:48;;;;;;;5.75;3.85;;;17.20;99.90;;;;;;5053965;28;20029;-68
2021/05/29 00:34:13;;;;;;;6.55;4.03;;;17.50;99.90;;;;;;5060602;28;20473;-68
2021/05/29 00:36:39;;;;;;;8.70;4.45;;;17.20;99.90;;;;;;5053258;28;20123;-71
2021/05/29 00:39:06;;;;;;;5.43;3.83;;;17.00;99.90;;;;;;5060224;28;20100;-68
2021/05/29 00:41:32;;;;;;;11.02;4.10;;;16.90;99.90;;;;;;5053317;28;20029;-73
2021/05/29 00:43:58;;;;;;;5.45;3.92;;;16.80;99.90;;;;;;5060109;28;20025;-69
2021/05/29 00:46:24;;;;;;;8.18;4.35;;;16.80;99.90;;;;;;5052755;28;20025;-68
2021/05/29 00:48:49;;;;;;;8.55;4.72;;;17.10;99.90;;;;;;5061881;28;20464;-73
2021/05/29 00:51:15;;;;;;;4.90;4.22;;;16.90;99.90;;;;;;5069241;28;20447;-73
2021/05/29 00:53:41;;;;;;;4.72;4.15;;;16.70;99.90;;;;;;5061355;28;20021;-69
2021/05/29 00:56:07;;;;;;;4.57;4.10;;;16.50;99.90;;;;;;5033340;28;20035;-71
2021/05/29 00:58:34;;;;;;;6.30;4.45;;;16.60;99.90;;;;;;5062011;28;20017;-71
2021/05/29 01:01:00;;;;;;;4.00;3.70;;;16.90;99.90;;;;;;5055970;28;20401;-68
2021/05/29 01:03:28;;;;;;;7.15;3.83;;;16.90;99.90;;;;;;5062586;28;20075;-72
2021/05/29 01:05:55;;;;;;;6.60;4.07;;;16.90;99.90;;;;;;5051079;28;20078;-68
2021/05/29 01:08:24;;;;;;;6.72;4.30;;;16.80;99.90;;;;;;5061420;28;20017;-71
2021/05/29 01:10:50;;;;;;;4.93;4.28;;;16.60;99.90;;;;;;5050416;28;20489;-68
2021/05/29 01:13:16;;;;;;;4.82;4.32;;;16.30;99.90;;;;;;5061528;28;20073;-71
2021/05/29 01:15:45;;;;;;;5.45;3.80;;;16.20;99.90;;;;;;5051150;28;20628;-68
2021/05/29 01:18:14;;;;;;;5.25;4.32;;;16.30;99.90;;;;;;5061853;28;20135;-69
2021/05/29 01:20:41;;;;;;;4.82;4.00;;;16.60;99.90;;;;;;5051065;28;20028;-71
2021/05/29 01:23:07;;;;;;;4.70;4.10;;;16.50;99.90;;;;;;5061189;28;20017;-73
2021/05/29 01:25:37;;;;;;;5.10;4.10;;;16.50;99.90;;;;;;5050178;28;20028;-72
2021/05/29 01:28:10;;;;;;;5.05;4.55;;;16.60;99.90;;;;;;5061112;28;20103;-72
2021/05/29 01:30:46;;;;;;;6.57;4.10;;;16.40;99.90;;;;;;5050539;28;20037;-68
2021/05/29 01:33:16;;;;;;;6.38;4.40;;;16.10;99.90;;;;;;5061557;28;20017;-68
2021/05/29 01:35:42;;;;;;;6.57;4.43;;;16.20;99.90;;;;;;5032779;28;20040;-71
2021/05/29 01:38:10;;;;;;;7.40;4.63;;;16.20;99.90;;;;;;5060785;28;20095;-68
2021/05/29 01:40:36;;;;;;;6.78;4.80;;;16.10;99.90;;;;;;5049985;28;20028;-70
2021/05/29 01:43:03;;;;;;;7.50;4.25;;;16.10;99.90;;;;;;5060218;28;20060;-72
2021/05/29 01:45:29;;;;;;;7.07;4.55;;;16.10;99.90;;;;;;5050395;28;20021;-72
2021/05/29 01:47:56;;;;;;;7.88;4.60;;;16.10;99.90;;;;;;5059977;28;20021;-71
2021/05/29 01:50:22;;;;;;;4.53;4.10;;;16.30;99.90;;;;;;5051599;28;20044;-72
2021/05/29 01:53:00;;;;;;;6.00;4.40;;;16.20;99.90;;;;;;5058618;28;20051;-68
2021/05/29 01:55:28;;;;;;;5.97;4.30;;;16.40;99.90;;;;;;5050462;28;20021;-73
2021/05/29 01:57:55;;;;;;;7.78;4.50;;;16.20;99.90;;;;;;5059323;28;20103;-69
2021/05/29 02:00:25;;;;;;;8.75;4.60;;;16.20;99.90;;;;;;5051244;28;20044;-70
2021/05/29 02:02:51;;;;;;;4.60;4.05;;;16.10;99.90;;;;;;5058927;28;20021;-74
2021/05/29 02:05:20;;;;;;;5.00;4.00;;;16.00;99.90;;;;;;5052092;28;20571;-68
2021/05/29 02:07:46;;;;;;;11.45;5.05;;;16.20;99.90;;;;;;5057969;28;20017;-69
2021/05/29 02:10:18;;;;;;;6.90;4.53;;;15.90;99.90;;;;;;5052686;28;20102;-69
2021/05/29 02:12:47;;;;;;;8.00;3.92;;;16.10;99.90;;;;;;5058081;28;20024;-68
2021/05/29 02:15:16;;;;;;;5.00;4.30;;;16.10;99.90;;;;;;5052318;28;20104;-72
2021/05/29 02:17:44;;;;;;;10.10;4.57;;;16.10;99.90;;;;;;5057561;28;20028;-67
2021/05/29 02:20:11;;;;;;;10.38;4.25;;;15.90;99.90;;;;;;5048540;28;20029;-70
2021/05/29 02:22:36;;;;;;;5.55;4.60;;;15.90;99.90;;;;;;5056519;28;20027;-68
2021/05/29 02:25:04;;;;;;;5.68;4.28;;;16.00;99.90;;;;;;5054139;28;20017;-73
2021/05/29 02:27:30;;;;;;;10.02;4.68;;;16.00;99.90;;;;;;5055716;28;20480;-71
2021/05/29 02:29:55;;;;;;;7.85;4.35;;;16.00;99.90;;;;;;5054434;28;20040;-71
2021/05/29 02:32:21;;;;;;;7.88;4.15;;;15.90;99.90;;;;;;5054339;28;20131;-68
2021/05/29 02:34:47;;;;;;;5.28;4.25;;;16.00;99.90;;;;;;5055651;28;20041;-68
2021/05/29 02:37:12;;;;;;;9.10;4.90;;;16.10;99.90;;;;;;5052897;28;20409;-74
2021/05/29 02:39:38;;;;;;;7.38;4.25;;;16.10;99.90;;;;;;5057038;28;20051;-71
2021/05/29 02:42:04;;;;;;;8.90;4.43;;;16.10;99.90;;;;;;5052289;28;20017;-68
2021/05/29 02:44:30;;;;;;;6.70;5.13;;;16.00;99.90;;;;;;5058277;28;20138;-72
2021/05/29 02:46:55;;;;;;;10.13;4.80;;;16.00;99.90;;;;;;5051784;28;20401;-70
2021/05/29 02:49:21;;;;;;;6.53;4.50;;;16.20;99.90;;;;;;5058451;28;20047;-69
2021/05/29 02:51:47;;;;;;;13.05;5.03;;;16.30;99.90;;;;;;5051374;28;20516;-68
2021/05/29 02:54:12;;;;;;;6.78;4.55;;;16.10;99.90;;;;;;5058815;28;20028;-74
2021/05/29 02:56:38;;;;;;;7.18;4.65;;;15.90;99.90;;;;;;5055864;28;20123;-71
2021/05/29 02:59:04;;;;;;;9.50;4.50;;;16.20;99.90;;;;;;5062118;28;20025;-73
2021/05/29 03:01:29;;;;;;;9.30;4.70;;;15.90;99.90;;;;;;5055341;28;20565;-72
2021/05/29 03:03:55;;;;;;;5.82;4.85;;;16.10;99.90;;;;;;5062480;28;20029;-71
2021/05/29 03:06:21;;;;;;;9.82;4.78;;;16.20;99.90;;;;;;5054298;28;20052;-68
2021/05/29 03:08:46;;;;;;;7.85;5.10;;;16.10;99.90;;;;;;5063212;28;20099;-71
2021/05/29 03:11:12;;;;;;;7.88;5.00;;;16.20;99.90;;;;;;5053294;28;20442;-73
2021/05/29 03:13:38;;;;;;;10.70;5.50;;;16.10;99.90;;;;;;5063873;28;20021;-71
2021/05/29 03:16:04;;;;;;;9.52;5.10;;;15.90;99.90;;;;;;5053212;28;20025;-71
2021/05/29 03:18:30;;;;;;;9.75;5.57;;;15.90;99.90;;;;;;5063906;28;20045;-73
2021/05/29 03:20:57;;;;;;;9.88;4.72;;;16.10;99.90;;;;;;5053137;28;20021;-67
2021/05/29 03:23:24;;;;;;;10.60;5.25;;;16.30;99.90;;;;;;5063704;28;20108;-70
2021/05/29 03:25:51;;;;;;;8.90;5.00;;;16.20;99.90;;;;;;5053091;28;20056;-68
2021/05/29 03:28:17;;;;;;;8.00;5.18;;;16.40;99.90;;;;;;5063684;28;20027;-69
2021/05/29 03:30:43;;;;;;;7.22;4.80;;;16.20;99.90;;;;;;5052699;28;20032;-73
2021/05/29 03:33:11;;;;;;;8.10;4.95;;;16.00;99.90;;;;;;5063649;28;20500;-72
2021/05/29 03:35:37;;;;;;;11.25;4.80;;;15.90;99.90;;;;;;5052763;28;20025;-72
2021/05/29 03:38:03;;;;;;;9.02;4.97;;;16.10;99.90;;;;;;5062860;28;20529;-74
2021/05/29 03:40:29;;;;;;;6.20;4.70;;;15.90;99.90;;;;;;5053361;28;20029;-69
2021/05/29 03:42:55;;;;;;;9.23;5.72;;;15.90;99.90;;;;;;5061803;28;20030;-71
2021/05/29 03:45:22;;;;;;;13.05;5.18;;;15.90;99.90;;;;;;5051273;28;20033;-68
2021/05/29 03:47:48;;;;;;;8.45;5.43;;;15.70;99.90;;;;;;5060822;28;20036;-73
2021/05/29 03:50:17;;;;;;;14.25;6.13;;;15.80;99.90;;;;;;5054803;28;20473;-68
2021/05/29 03:52:44;;;;;;;13.43;4.95;;;15.70;99.90;;;;;;5059682;28;20024;-67
2021/05/29 03:55:15;;;;;;;9.13;5.70;;;15.80;99.90;;;;;;5055833;28;20021;-72
2021/05/29 03:57:40;;;;;;;7.68;5.43;;;15.80;99.90;;;;;;5059552;28;20078;-69
2021/05/29 04:00:08;;;;;;;6.75;4.95;;;15.90;99.90;;;;;;5056003;28;20061;-68
2021/05/29 04:02:34;;;;;;;11.80;5.28;;;15.90;99.90;;;;;;5058814;28;20013;-72
2021/05/29 04:05:00;;;;;;;7.40;4.68;;;16.10;99.90;;;;;;5056325;28;20397;-73
2021/05/29 04:07:25;;;;;;;10.60;5.07;;;15.90;99.90;;;;;;5056836;28;20024;-72
2021/05/29 04:09:51;;;;;;;14.13;5.65;;;16.00;99.90;;;;;;5057809;28;20025;-68
2021/05/29 04:12:17;;;;;;;6.65;5.55;;;16.00;99.90;;;;;;5055665;28;20021;-69
2021/05/29 04:14:42;;;;;;;5.30;4.47;;;16.20;99.90;;;;;;5050859;28;20463;-72
2021/05/29 04:17:10;;;;;;;11.88;4.68;;;16.30;99.90;;;;;;5055218;28;20029;-70
2021/05/29 04:19:36;;;;;;;9.18;5.20;;;16.10;99.90;;;;;;5060040;28;20009;-73
2021/05/29 04:22:02;;;;;;;10.77;4.82;;;16.10;99.90;;;;;;5053749;28;20436;-72
2021/05/29 04:24:28;;;;;;;11.85;5.15;;;16.20;99.90;;;;;;5060604;28;20481;-73
2021/05/29 04:26:53;;;;;;;14.77;5.03;;;16.20;99.90;;;;;;5035640;28;20017;-69
2021/05/29 04:29:19;;;;;;;6.55;4.72;;;16.20;99.90;;;;;;5060379;28;20100;-68
2021/05/29 04:31:45;;;;;;;13.77;4.65;;;16.10;99.90;;;;;;5054002;28;20036;-71
2021/05/29 04:34:11;;;;;;;6.55;4.53;;;16.00;99.90;;;;;;5060284;28;20028;-74
2021/05/29 04:36:36;;;;;;;8.77;4.82;;;16.10;99.90;;;;;;5053294;28;20025;-74
2021/05/29 04:39:03;;;;;;;9.82;5.10;;;16.00;99.90;;;;;;5060575;28;20047;-71
2021/05/29 04:41:29;;;;;;;10.13;4.75;;;16.00;99.90;;;;;;5052892;28;20036;-71
2021/05/29 04:43:55;;;;;;;7.30;5.03;;;16.10;99.90;;;;;;5060139;28;20029;-73
2021/05/29 04:46:20;;;;;;;7.55;5.10;;;15.90;99.90;;;;;;5052249;28;20036;-74
2021/05/29 04:48:46;;;;;;;9.45;4.88;;;15.90;99.90;;;;;;5061785;28;20025;-72
2021/05/29 04:51:15;;;;;;;9.27;4.95;;;16.00;99.90;;;;;;5051334;28;20102;-72
2021/05/29 04:53:46;;;;;;;13.63;5.07;;;16.00;99.90;;;;;;5062209;28;20025;-74
2021/05/29 04:56:13;;;;;;;11.85;5.03;;;16.10;99.90;;;;;;5050890;28;20032;-74
2021/05/29 04:58:38;;;;;;;10.60;5.32;;;16.30;99.90;;;;;;5061784;28;20104;-72
2021/05/29 05:01:09;;;;;;;7.13;4.70;;;16.10;99.90;;;;;;5050981;28;20120;-69
2021/05/29 05:03:36;;;;;;;9.00;5.00;;;16.30;99.90;;;;;;5062117;28;20052;-67
2021/05/29 05:06:02;;;;;;;7.68;4.72;;;16.40;99.90;;;;;;5051151;28;20025;-70
2021/05/29 05:08:28;;;;;;;8.35;5.00;;;16.40;99.90;;;;;;5040996;28;20109;-73
2021/05/29 05:10:57;;;;;;;9.63;5.18;;;16.20;99.90;;;;;;5070321;28;20116;-73
2021/05/29 05:13:26;;;;;;;9.48;5.30;;;16.30;99.90;;;;;;5062440;28;20016;-74
2021/05/29 05:15:52;;;;;;;10.43;4.80;;;16.40;99.90;;;;;;5049810;28;20059;-74
2021/05/29 05:18:20;;;;;;;8.43;4.70;;;16.40;99.90;;;;;;5061204;28;20299;-73
2021/05/29 05:20:47;;;;;;;6.40;5.20;;;16.40;99.90;;;;;;5050790;28;20564;-71
2021/05/29 05:23:13;;;;;;;13.50;5.50;;;16.20;99.90;;;;;;5061126;28;20506;-73
2021/05/29 05:25:39;;;;;;;11.10;5.28;;;16.30;99.90;;;;;;5050622;28;20033;-73
2021/05/29 05:28:04;;;;;;;9.18;4.78;;;16.20;99.90;;;;;;5061227;28;20031;-68
2021/05/29 05:30:30;;;;;;;15.20;5.60;;;16.20;99.90;;;;;;5051019;28;20072;-70
2021/05/29 05:33:03;;;;;;;10.77;5.95;;;16.40;99.90;;;;;;5059820;28;20078;-72
2021/05/29 05:35:30;;;;;;;16.52;5.50;;;16.40;99.90;;;;;;5051067;28;20032;-73
2021/05/29 05:37:55;;;;;;;8.00;5.20;;;16.40;99.90;;;;;;5058762;28;20636;-72
2021/05/29 05:40:21;;;;;;;13.65;5.43;;;16.50;99.90;;;;;;5051764;28;20055;-71
2021/05/29 05:42:47;;;;;;;6.35;4.90;;;16.50;99.90;;;;;;5056669;28;20115;-71
2021/05/29 05:45:13;;;;;;;10.57;5.32;;;16.60;99.90;;;;;;5053739;28;20433;-71
2021/05/29 05:47:39;;;;;;;11.68;5.40;;;16.50;99.90;;;;;;5056738;28;20603;-73
2021/05/29 05:50:08;;;;;;;13.13;5.22;;;16.80;99.90;;;;;;5054633;28;20119;-73
2021/05/29 05:52:33;;;;;;;9.73;5.05;;;16.90;99.90;;;;;;5055306;28;20112;-71
2021/05/29 05:54:59;;;;;;;7.55;5.38;;;16.80;99.90;;;;;;5055202;28;20106;-73
2021/05/29 05:57:25;;;;;;;12.77;5.13;;;16.90;99.90;;;;;;5055044;28;20029;-73
2021/05/29 05:59:50;;;;;;;7.60;5.15;;;17.00;99.90;;;;;;5056275;28;20032;-73
2021/05/29 06:02:16;;;;;;;5.97;5.25;;;17.00;99.90;;;;;;5053538;28;20128;-72
2021/05/29 06:04:42;;;;;;;7.18;5.13;;;16.90;99.90;;;;;;5057659;28;20025;-71
2021/05/29 06:07:07;;;;;;;11.07;5.63;;;17.10;99.90;;;;;;5052194;28;20021;-73
2021/05/29 06:09:33;;;;;;;6.72;5.40;;;17.10;99.90;;;;;;5058856;28;20636;-70
2021/05/29 06:11:59;;;;;;;9.02;5.88;;;17.00;99.90;;;;;;5051731;28;20048;-74
2021/05/29 06:19:55;;;;;;;8.55;6.30;;;17.30;99.90;;;;;;5055877;28;20028;-74
2021/05/29 06:22:21;;;;;;;31.25;19.02;;;17.30;99.90;;;;;;5053747;28;20033;-73
2021/05/29 06:24:46;;;;;;;41.28;21.08;;;17.20;99.90;;;;;;5056673;28;20021;-73
2021/05/29 06:27:12;;;;;;;42.60;24.25;;;17.30;99.90;;;;;;5052615;28;20032;-73
2021/05/29 06:29:38;;;;;;;40.90;22.52;;;17.30;99.90;;;;;;5057546;28;20041;-70
2021/05/29 06:32:04;;;;;;;20.92;12.65;;;17.40;99.90;;;;;;5051829;28;20032;-69
2021/05/29 06:34:29;;;;;;;15.50;8.57;;;17.40;99.90;;;;;;5058387;28;20036;-70
2021/05/29 06:36:55;;;;;;;16.38;10.75;;;17.30;99.90;;;;;;5033233;28;20042;-69
2021/05/29 06:39:22;;;;;;;10.40;6.72;;;17.30;99.90;;;;;;5058407;28;20021;-71
2021/05/29 06:41:48;;;;;;;11.35;6.43;;;17.20;99.90;;;;;;5051379;28;20020;-69
2021/05/29 06:44:13;;;;;;;14.00;6.20;;;17.30;99.90;;;;;;5058308;28;20497;-69
2021/05/29 06:46:40;;;;;;;11.93;5.72;;;17.50;99.90;;;;;;5051807;28;20432;-69
2021/05/29 06:49:06;;;;;;;18.65;9.23;;;17.40;99.90;;;;;;5058410;28;20025;-72
2021/05/29 06:51:54;;;;;;;13.88;9.38;;;17.60;99.90;;;;;;5051056;28;20074;-74
2021/05/29 06:59:30;;;;;;;39.60;25.42;;;17.80;99.90;;;;;;5058563;28;20106;-74
2021/05/29 07:01:56;;;;;;;39.70;23.77;;;18.00;99.90;;;;;;5052013;28;20056;-71
2021/05/29 07:04:21;;;;;;;17.52;11.27;;;17.90;99.90;;;;;;5058510;28;20040;-73
2021/05/29 07:06:47;;;;;;;18.00;10.65;;;17.90;99.90;;;;;;5051193;28;20107;-74
2021/05/29 07:09:15;;;;;;;24.42;12.13;;;18.10;99.90;;;;;;5058150;28;20029;-74
2021/05/29 07:11:41;;;;;;;31.70;20.85;;;18.20;99.90;;;;;;5050957;28;20036;-73
2021/05/29 07:14:07;;;;;;;18.25;9.30;;;18.30;99.90;;;;;;5057994;28;20559;-74
2021/05/29 07:16:35;;;;;;;10.98;6.40;;;18.40;99.90;;;;;;5051188;28;20025;-75
2021/05/29 07:19:01;;;;;;;10.32;6.57;;;18.40;99.90;;;;;;5058077;28;20040;-75
2021/05/29 07:21:27;;;;;;;6.93;5.57;;;18.50;99.90;;;;;;5049873;28;20440;-71
2021/05/29 07:23:52;;;;;;;14.07;6.50;;;18.80;99.90;;;;;;5058628;28;20025;-74
2021/05/29 07:26:18;;;;;;;10.73;6.93;;;18.80;99.90;;;;;;5048979;28;20351;-74
2021/05/29 07:28:44;;;;;;;10.93;6.55;;;18.90;99.90;;;;;;5059834;28;20044;-74
2021/05/29 07:31:10;;;;;;;8.32;6.75;;;19.10;99.90;;;;;;5031094;28;20064;-74
2021/05/29 07:33:36;;;;;;;11.63;6.10;;;19.20;99.90;;;;;;5060171;28;20033;-74
2021/05/29 07:36:02;;;;;;;12.32;6.68;;;19.10;99.90;;;;;;5049218;28;20032;-68
2021/05/29 07:38:28;;;;;;;7.75;6.45;;;19.20;99.90;;;;;;5059761;28;20045;-72
2021/05/29 07:40:53;;;;;;;11.15;6.75;;;19.30;99.90;;;;;;5050024;28;20040;-74
2021/05/29 07:43:19;;;;;;;8.25;6.85;;;19.40;99.90;;;;;;5063628;28;20028;-75
2021/05/29 07:45:45;;;;;;;11.95;6.07;;;19.40;99.90;;;;;;5052487;28;20025;-74
2021/05/29 07:48:12;;;;;;;9.75;6.10;;;19.50;99.90;;;;;;5063421;28;20021;-73
2021/05/29 07:53:31;;;;;;;12.93;6.05;;;19.70;99.90;;;;;;5063476;28;20074;-75
2021/05/29 07:55:58;;;;;;;9.85;6.70;;;19.70;99.90;;;;;;5052126;28;20029;-75
2021/05/29 07:58:25;;;;;;;12.52;5.80;;;20.00;99.90;;;;;;5062260;28;20044;-74
2021/05/29 08:00:51;;;;;;;12.80;7.07;;;20.00;99.90;;;;;;5052279;28;20039;-75
2021/05/29 08:03:22;;;;;;;10.18;6.25;;;20.30;99.90;;;;;;5063406;28;20023;-75
2021/05/29 08:05:50;;;;;;;11.32;6.28;;;20.60;99.90;;;;;;5052245;28;20145;-74
2021/05/29 08:08:17;;;;;;;10.52;6.30;;;20.90;99.90;;;;;;5062656;28;20111;-72
2021/05/29 08:10:45;;;;;;;15.38;6.07;;;21.10;99.90;;;;;;5051653;28;20029;-75
2021/05/29 08:13:11;;;;;;;11.98;6.40;;;21.00;99.90;;;;;;5062882;28;20092;-68
2021/05/29 08:15:37;;;;;;;12.00;6.55;;;20.80;99.90;;;;;;5052608;28;20514;-75
2021/05/29 08:18:02;;;;;;;15.77;6.57;;;21.00;99.90;;;;;;5061511;28;20032;-74
2021/05/29 08:20:28;;;;;;;8.32;6.03;;;21.20;99.90;;;;;;5053375;28;20594;-76
2021/05/29 08:22:54;;;;;;;9.88;6.43;;;21.30;99.90;;;;;;5054120;28;20017;-75
2021/05/29 08:25:20;;;;;;;15.63;6.80;;;21.20;99.90;;;;;;5068861;28;20086;-76
2021/05/29 08:27:46;;;;;;;8.95;5.63;;;21.10;99.90;;;;;;5064969;28;20032;-73
2021/05/29 08:30:12;;;;;;;11.00;6.68;;;21.40;99.90;;;;;;5055789;28;20594;-71
2021/05/29 08:32:39;;;;;;;7.18;5.68;;;21.40;99.90;;;;;;5058045;28;20028;-76
2021/05/29 08:35:06;;;;;;;13.63;6.35;;;21.40;99.90;;;;;;5056457;28;20064;-75
2021/05/29 08:37:32;;;;;;;6.72;6.03;;;21.50;99.90;;;;;;5056839;28;20079;-74
2021/05/29 08:39:58;;;;;;;7.50;5.63;;;21.60;99.90;;;;;;5057119;28;20108;-74
2021/05/29 08:42:23;;;;;;;8.93;6.03;;;21.50;99.90;;;;;;5055104;28;20025;-76
2021/05/29 08:44:51;;;;;;;10.18;6.35;;;21.40;99.90;;;;;;5058211;28;20103;-76
2021/05/29 08:47:19;;;;;;;14.02;6.18;;;21.40;99.90;;;;;;5055062;28;20482;-72
2021/05/29 08:49:45;;;;;;;7.15;5.60;;;21.20;99.90;;;;;;5058822;28;20017;-74
2021/05/29 08:52:11;;;;;;;7.03;5.35;;;21.40;99.90;;;;;;5052186;28;20075;-73
2021/05/29 08:54:38;;;;;;;9.38;5.95;;;21.40;99.90;;;;;;5059755;28;20071;-67
2021/05/29 08:57:04;;;;;;;9.95;5.95;;;21.30;99.90;;;;;;5052959;28;20109;-75
2021/05/29 08:59:30;;;;;;;12.98;6.32;;;21.30;99.90;;;;;;5059974;28;20021;-74
2021/05/29 09:02:01;;;;;;;7.35;5.90;;;21.40;99.90;;;;;;5053437;28;20017;-72
2021/05/29 09:04:27;;;;;;;9.93;5.88;;;21.40;99.90;;;;;;5059977;28;20052;-72
2021/05/29 09:06:53;;;;;;;10.32;6.30;;;21.40;99.90;;;;;;5052987;28;20044;-67
2021/05/29 09:09:19;;;;;;;12.02;5.90;;;21.40;99.90;;;;;;5060110;28;20048;-74
2021/05/29 09:11:49;;;;;;;10.15;5.25;;;21.40;99.90;;;;;;5052516;28;20516;-75
2021/05/29 09:14:24;;;;;;;9.50;5.90;;;21.40;99.90;;;;;;5059317;28;20393;-74
2021/05/29 09:17:21;;;;;;;13.52;5.97;;;21.50;99.90;;;;;;5053048;28;20024;-73
2021/05/29 09:20:07;;;;;;;7.80;5.50;;;21.60;99.90;;;;;;5063827;28;20703;-73
2021/05/29 09:22:32;;;;;;;9.57;5.65;;;22.20;99.90;;;;;;5063813;28;20048;-72
2021/05/29 09:25:05;;;;;;;9.52;5.45;;;22.30;99.90;;;;;;5056245;28;20118;-74
2021/05/29 09:27:36;;;;;;;10.07;5.75;;;22.40;99.90;;;;;;5055598;28;20112;-75
2021/05/29 09:30:08;;;;;;;6.97;5.10;;;22.10;99.90;;;;;;5055617;28;20025;-67
2021/05/29 09:32:35;;;;;;;10.40;5.57;;;22.20;99.90;;;;;;5056049;28;20008;-73
2021/05/29 09:35:14;;;;;;;6.13;4.82;;;22.10;99.90;;;;;;5055863;28;20031;-75
2021/05/29 09:37:40;;;;;;;8.18;5.50;;;22.10;99.90;;;;;;5056000;28;20049;-74
2021/05/29 09:40:09;;;;;;;8.63;5.20;;;22.00;99.90;;;;;;5055179;28;20036;-71
2021/05/29 09:42:40;;;;;;;9.27;5.68;;;21.90;99.90;;;;;;5055564;28;20053;-75
2021/05/29 09:45:27;;;;;;;8.00;5.50;;;21.80;99.90;;;;;;5055156;28;20357;-75
2021/05/29 09:48:12;;;;;;;5.65;5.10;;;21.80;99.90;;;;;;5058384;28;20028;-74
2021/05/29 09:51:07;;;;;;;10.30;5.68;;;21.50;99.90;;;;;;5050545;28;20073;-75
2021/05/29 09:53:34;;;;;;;7.78;5.65;;;21.40;99.90;;;;;;5057994;28;20592;-74
2021/05/29 09:56:00;;;;;;;12.23;6.28;;;21.50;99.90;;;;;;5069641;28;20024;-72
2021/05/29 09:58:52;;;;;;;10.75;6.20;;;21.30;99.90;;;;;;5061944;28;20027;-67
2021/05/29 10:01:37;;;;;;;7.75;5.57;;;21.30;99.90;;;;;;5050504;28;20437;-74
2021/05/29 10:04:06;;;;;;;8.02;5.53;;;21.40;99.90;;;;;;5060802;28;20020;-74
2021/05/29 10:06:32;;;;;;;8.60;5.82;;;21.40;99.90;;;;;;5067420;28;20044;-74
2021/05/29 10:08:58;;;;;;;8.05;5.78;;;21.10;99.90;;;;;;5059419;28;20423;-69
2021/05/29 10:11:24;;;;;;;12.70;6.10;;;21.30;99.90;;;;;;5050002;28;20120;-67
2021/05/29 10:13:50;;;;;;;8.02;6.10;;;21.20;99.90;;;;;;5060448;28;20040;-75
2021/05/29 10:16:16;;;;;;;12.80;6.63;;;21.40;99.90;;;;;;5049888;28;20653;-76
2021/05/29 10:18:47;;;;;;;13.00;6.18;;;21.40;99.90;;;;;;5060793;28;20021;-75
2021/05/29 10:21:13;;;;;;;9.07;5.63;;;21.50;99.90;;;;;;5049472;28;20094;-74
2021/05/29 10:23:41;;;;;;;12.43;6.35;;;21.60;99.90;;;;;;5060434;28;20021;-67
2021/05/29 10:26:08;;;;;;;8.65;5.95;;;21.60;99.90;;;;;;5049488;28;20032;-75
2021/05/29 10:28:35;;;;;;;8.35;6.10;;;21.60;99.90;;;;;;5057824;28;20147;-75
2021/05/29 10:31:00;;;;;;;7.18;5.15;;;21.70;99.90;;;;;;5069600;28;20040;-70
2021/05/29 10:33:26;;;;;;;9.35;6.20;;;21.90;99.90;;;;;;5061573;28;20033;-73
2021/05/29 10:35:52;;;;;;;12.27;5.60;;;21.70;99.90;;;;;;5049592;28;20025;-73
2021/05/29 10:38:22;;;;;;;10.48;6.30;;;21.90;99.90;;;;;;5060202;28;20047;-75
2021/05/29 10:40:49;;;;;;;5.97;5.20;;;22.00;99.90;;;;;;5049194;28;20021;-69
2021/05/29 10:43:20;;;;;;;10.07;5.60;;;21.90;99.90;;;;;;5060438;28;20056;-67
2021/05/29 10:45:51;;;;;;;5.30;4.80;;;22.20;99.90;;;;;;5049516;28;20029;-73
2021/05/29 10:48:24;;;;;;;10.93;5.32;;;21.80;99.90;;;;;;5060270;28;20389;-73
2021/05/29 10:50:56;;;;;;;8.95;5.40;;;21.70;99.90;;;;;;5049489;28;20029;-72
2021/05/29 10:53:38;;;;;;;7.13;4.63;;;21.80;99.90;;;;;;5060323;28;20031;-67
2021/05/29 10:56:18;;;;;;;8.65;4.63;;;21.90;99.90;;;;;;5049227;28;20017;-68
2021/05/29 10:58:59;;;;;;;7.15;5.00;;;22.10;99.90;;;;;;5057137;28;20078;-67
2021/05/29 11:01:42;;;;;;;8.13;5.07;;;22.10;99.90;;;;;;5067454;28;20016;-67
2021/05/29 11:04:22;;;;;;;9.23;4.78;;;21.90;99.90;;;;;;5058185;28;20067;-75
2021/05/29 11:06:59;;;;;;;10.55;4.90;;;21.90;99.90;;;;;;5051019;28;20521;-73
2021/05/29 11:09:32;;;;;;;5.40;4.82;;;21.80;99.90;;;;;;5057993;28;20028;-68
2021/05/29 11:11:58;;;;;;;8.45;5.35;;;22.00;99.90;;;;;;5051204;28;20536;-75
2021/05/29 11:14:48;;;;;;;7.97;5.00;;;22.00;99.90;;;;;;5056606;28;20032;-75
2021/05/29 11:17:15;;;;;;;5.93;5.22;;;21.90;99.90;;;;;;5055490;28;20105;-68
2021/05/29 11:19:42;;;;;;;6.47;5.22;;;21.70;99.90;;;;;;5061647;28;20025;-68
2021/05/29 11:22:14;;;;;;;8.40;5.10;;;21.80;99.90;;;;;;5055167;28;20401;-73
2021/05/29 11:24:42;;;;;;;8.25;4.90;;;21.80;99.90;;;;;;5043081;28;20029;-69
2021/05/29 11:27:30;;;;;;;10.18;5.03;;;21.60;99.90;;;;;;5054901;28;20113;-72
2021/05/29 11:30:01;;;;;;;7.47;4.93;;;21.40;99.90;;;;;;5066030;28;20477;-70
2021/05/29 11:33:16;;;;;;;7.00;5.40;;;21.50;99.90;;;;;;5066117;28;20029;-68
2021/05/29 11:35:47;;;;;;;7.32;5.13;;;21.30;99.90;;;;;;5052051;28;20099;-72
2021/05/29 11:38:18;;;;;;;6.40;5.15;;;21.30;99.90;;;;;;5062791;28;20607;-74
2021/05/29 11:40:46;;;;;;;7.55;5.72;;;21.10;99.90;;;;;;5052352;28;20060;-73
2021/05/29 11:43:15;;;;;;;8.88;5.50;;;21.00;99.90;;;;;;5063081;28;20052;-69
2021/05/29 11:45:41;;;;;;;6.78;5.55;;;21.00;99.90;;;;;;5052982;28;20466;-70
2021/05/29 11:48:07;;;;;;;9.18;5.10;;;21.00;99.90;;;;;;5062737;28;20052;-70
2021/05/29 11:50:39;;;;;;;8.68;5.57;;;21.00;99.90;;;;;;5053449;28;20033;-74
2021/05/29 11:53:06;;;;;;;10.07;5.68;;;21.10;99.90;;;;;;5061509;28;20074;-74
2021/05/29 11:55:52;;;;;;;8.20;4.93;;;21.20;99.90;;;;;;5053545;28;20056;-72
2021/05/29 11:58:18;;;;;;;8.45;5.30;;;20.80;99.90;;;;;;5063638;28;20036;-68
2021/05/29 12:00:58;;;;;;;8.93;5.00;;;20.70;99.90;;;;;;5052382;28;20037;-71
2021/05/29 12:03:43;;;;;;;6.53;4.70;;;20.40;99.90;;;;;;5062936;28;20485;-73
2021/05/29 12:06:11;;;;;;;5.88;4.13;;;20.10;99.90;;;;;;5052289;28;20036;-69
2021/05/29 12:08:58;;;;;;;6.47;4.25;;;19.90;99.90;;;;;;5063097;28;20017;-75
2021/05/29 12:11:29;;;;;;;5.80;4.35;;;19.90;99.90;;;;;;5052019;28;20060;-73
2021/05/29 12:14:02;;;;;;;10.73;4.50;;;19.70;99.90;;;;;;5061620;28;20509;-74
2021/05/29 12:16:31;;;;;;;8.68;4.80;;;19.90;99.90;;;;;;5070345;28;20024;-69
2021/05/29 12:18:58;;;;;;;9.77;4.72;;;19.60;99.90;;;;;;5061789;28;20390;-68
2021/05/29 12:21:24;;;;;;;9.85;5.15;;;19.60;99.90;;;;;;5051424;28;20033;-74
2021/05/29 12:23:57;;;;;;;9.05;4.65;;;19.80;99.90;;;;;;5062792;28;20493;-73
2021/05/29 12:26:25;;;;;;;9.52;4.78;;;19.50;99.90;;;;;;5051444;28;20064;-74
2021/05/29 12:28:52;;;;;;;17.15;5.70;;;19.40;99.90;;;;;;5060434;28;20035;-73
2021/05/29 12:31:21;;;;;;;7.90;4.57;;;19.50;99.90;;;;;;5070856;28;20127;-74
2021/05/29 12:33:47;;;;;;;5.60;4.25;;;19.40;99.90;;;;;;5062629;28;20021;-73
2021/05/29 12:36:14;;;;;;;9.73;4.70;;;19.30;99.90;;;;;;5051180;28;20544;-74
2021/05/29 12:39:00;;;;;;;7.03;4.70;;;19.10;99.90;;;;;;5059371;28;20044;-71
2021/05/29 12:41:37;;;;;;;5.72;4.45;;;19.20;99.90;;;;;;5069065;28;20454;-72
2021/05/29 12:44:09;;;;;;;5.82;4.38;;;19.10;99.90;;;;;;5061855;28;20538;-74
2021/05/29 12:46:35;;;;;;;4.63;4.15;;;19.00;99.90;;;;;;5069678;28;20032;-73
2021/05/29 12:49:28;;;;;;;7.45;5.05;;;19.00;99.90;;;;;;5061200;28;20473;-71
2021/05/29 12:51:56;;;;;;;6.25;4.65;;;19.10;99.90;;;;;;5048406;28;20029;-74
2021/05/29 12:54:22;;;;;;;8.05;4.82;;;19.10;99.90;;;;;;5059805;28;20040;-72
2021/05/29 12:56:55;;;;;;;5.55;4.53;;;19.20;99.90;;;;;;5053192;28;20024;-73
2021/05/29 12:59:29;;;;;;;8.05;5.30;;;19.30;99.90;;;;;;5059463;28;20033;-74
2021/05/29 13:07:39;;;;;;;14.10;5.00;;;19.20;99.90;;;;;;5064155;28;20066;-71